首页
METAR-TAF:

METAR-TAF

机场 :

布里夫拉盖亚尔德, 法国

纬度: 45-02-28N, 经度: 001-28-59E, 海拔: 311米

当前天气观测

该预报发布于35分钟前的17:30 UTC
风速3节,风向东转东南
温度 9°C
湿度 81%
气压 1020 hPa
能见度10公里或以上
散云层高于3800英尺
多云层高于4700英尺
多云层高于6200英尺

METAR: LFSL 241730Z AUTO 12003KT 9999 SCT038 BKN047 BKN062 09/06 Q1020 NOSIG

时间: 19:05 (18:05 UTC)

预报

该预报发布于1小时和5分钟前的17:00 UTC
预报有效从24日的 18点(UTC)到 25日的 03点(UTC)
风速5节,风向东南
能见度10公里或以上
1500米以下无云,无积雨云
短暂存在
从 24日的 18点(UTC)到 24日的 21点(UTC)
多云层高于3500英尺
成为
从 24日的 23点(UTC)到 25日的 01点(UTC)
风速2节,风向多变

TAF: LFSL 241700Z 2418/2503 14005KT CAVOK TEMPO 2418/2421 BKN035 BECMG 2423/2501 VRB02KT

超过4000个机场的气象观测和天气预报(METAR&TAF报告)。

可查询的气象台以黄色和红色小点在地图上表示。

将鼠标移到小点上方,可查看气象台名称。

然后点击查看天气观测和预报。

如需切换地图:点击带黑十字的绿色按钮放大地图;点击带横线的绿色按钮缩小地图;或者点击绿色箭头查看邻近地区的地图。


METAR-TAF: